Time;durP1;ratioP1;P1;durP2;ratioP2;P2;SDS_P1;SDS_P2;PMS_P1;PMS_P2;Temp;Humidity;BMP_temperature;BMP_pressure;BME280_temperature;BME280_humidity;BME280_pressure;Samples;Min_cycle;Max_cycle;Signal;HPM_P1;HPM_P2
2021/09/02 00:00:46;;;;;;;9.07;4.13;;;;;;;;;;5077778;28;20033;-68
2021/09/02 00:03:12;;;;;;;8.77;4.75;;;;;;;;;;5077399;28;20080;-67
2021/09/02 00:05:38;;;;;;;8.07;4.20;;;;;;;;;;5076901;28;20067;-69
2021/09/02 00:08:05;;;;;;;9.52;4.35;;;;;;;;;;5075321;28;20035;-71
2021/09/02 00:10:31;;;;;;;7.90;4.57;;;;;;;;;;5069582;28;20422;-68
2021/09/02 00:12:57;;;;;;;9.38;4.43;;;;;;;;;;5073510;28;20475;-68
2021/09/02 00:15:23;;;;;;;10.40;4.47;;;;;;;;;;5074490;28;20028;-70
2021/09/02 00:17:49;;;;;;;10.68;4.18;;;;;;;;;;5072071;28;20029;-68
2021/09/02 00:20:15;;;;;;;10.73;4.45;;;;;;;;;;5085187;28;20028;-68
2021/09/02 00:22:41;;;;;;;11.93;4.45;;;;;;;;;;5071167;28;20217;-68
2021/09/02 00:25:08;;;;;;;7.97;4.55;;;;;;;;;;5070006;28;20217;-68
2021/09/02 00:27:34;;;;;;;10.95;3.80;;;;;;;;;;5070536;28;20027;-68
2021/09/02 00:30:00;;;;;;;9.40;4.60;;;;;;;;;;5071239;28;20549;-67
2021/09/02 00:32:26;;;;;;;7.60;4.22;;;;;;;;;;5071781;28;20086;-68
2021/09/02 00:34:52;;;;;;;7.65;4.35;;;;;;;;;;5071459;28;20024;-68
2021/09/02 00:37:18;;;;;;;8.60;4.65;;;;;;;;;;5071277;28;20041;-69
2021/09/02 00:39:44;;;;;;;10.98;4.13;;;;;;;;;;5070314;28;20021;-70
2021/09/02 00:42:10;;;;;;;7.22;4.35;;;;;;;;;;5069926;28;20572;-69
2021/09/02 00:44:37;;;;;;;9.70;4.63;;;;;;;;;;5071541;28;20032;-68
2021/09/02 00:47:04;;;;;;;9.00;4.47;;;;;;;;;;5069421;28;20025;-70
2021/09/02 00:49:30;;;;;;;9.40;4.55;;;;;;;;;;5069895;28;20056;-69
2021/09/02 00:51:59;;;;;;;8.20;4.53;;;;;;;;;;5069318;28;20036;-68
2021/09/02 00:54:25;;;;;;;8.85;4.57;;;;;;;;;;5069266;28;20035;-68
2021/09/02 00:56:51;;;;;;;9.00;4.88;;;;;;;;;;5071253;28;20033;-68
2021/09/02 00:59:17;;;;;;;8.90;4.60;;;;;;;;;;5070457;28;20205;-70
2021/09/02 01:01:44;;;;;;;9.57;4.40;;;;;;;;;;5068477;28;20032;-69
2021/09/02 01:04:10;;;;;;;7.93;4.88;;;;;;;;;;5069178;28;20016;-73
2021/09/02 01:06:36;;;;;;;8.13;4.75;;;;;;;;;;5070347;28;20028;-69
2021/09/02 01:09:02;;;;;;;6.97;4.18;;;;;;;;;;5070822;28;20214;-68
2021/09/02 01:11:28;;;;;;;8.50;4.72;;;;;;;;;;5069830;28;20099;-68
2021/09/02 01:13:54;;;;;;;8.77;4.75;;;;;;;;;;5067784;28;20039;-68
2021/09/02 01:16:20;;;;;;;8.02;4.50;;;;;;;;;;5070159;28;20482;-68
2021/09/02 01:18:46;;;;;;;7.90;4.50;;;;;;;;;;5070505;28;20380;-68
2021/09/02 01:21:12;;;;;;;10.70;4.80;;;;;;;;;;5070560;28;20047;-69
2021/09/02 01:23:39;;;;;;;8.85;4.53;;;;;;;;;;5066871;28;20040;-68
2021/09/02 01:26:21;;;;;;;6.63;4.05;;;;;;;;;;5070253;28;20052;-68
2021/09/02 01:28:48;;;;;;;8.15;4.47;;;;;;;;;;5069274;28;20020;-68
2021/09/02 01:31:14;;;;;;;8.80;4.75;;;;;;;;;;5069319;28;20026;-69
2021/09/02 01:33:44;;;;;;;8.13;4.95;;;;;;;;;;5066368;28;20483;-69
2021/09/02 01:36:10;;;;;;;7.25;4.43;;;;;;;;;;5066572;28;20024;-69
2021/09/02 01:38:37;;;;;;;9.68;4.20;;;;;;;;;;5070454;28;20041;-68
2021/09/02 01:41:03;;;;;;;10.20;4.75;;;;;;;;;;5069224;28;20491;-68
2021/09/02 01:43:29;;;;;;;7.80;4.45;;;;;;;;;;5068521;28;20032;-69
2021/09/02 01:45:55;;;;;;;11.23;4.40;;;;;;;;;;5069953;28;20017;-68
2021/09/02 01:48:21;;;;;;;7.93;4.30;;;;;;;;;;5069858;28;20028;-68
2021/09/02 01:50:47;;;;;;;7.78;4.32;;;;;;;;;;5069708;28;20111;-68
2021/09/02 01:53:15;;;;;;;7.30;4.18;;;;;;;;;;5069522;28;20032;-69
2021/09/02 01:55:42;;;;;;;8.60;4.25;;;;;;;;;;5069740;28;20029;-69
2021/09/02 01:58:08;;;;;;;7.60;4.47;;;;;;;;;;5069681;28;20032;-70
2021/09/02 02:00:35;;;;;;;7.18;3.90;;;;;;;;;;5069961;28;20061;-68
2021/09/02 02:03:01;;;;;;;7.15;4.20;;;;;;;;;;5069681;28;20024;-69
2021/09/02 02:05:27;;;;;;;7.90;3.72;;;;;;;;;;5068741;28;20082;-69
2021/09/02 02:07:53;;;;;;;8.80;4.40;;;;;;;;;;5067818;28;20503;-68
2021/09/02 02:10:22;;;;;;;7.47;4.05;;;;;;;;;;5069491;28;20025;-68
2021/09/02 02:12:48;;;;;;;8.02;4.40;;;;;;;;;;5066246;28;20035;-68
2021/09/02 02:15:15;;;;;;;7.95;4.20;;;;;;;;;;5070049;28;20021;-71
2021/09/02 02:17:42;;;;;;;7.53;4.50;;;;;;;;;;5069433;28;20028;-70
2021/09/02 02:20:08;;;;;;;9.20;4.15;;;;;;;;;;5069178;28;20028;-71
2021/09/02 02:22:35;;;;;;;6.45;3.88;;;;;;;;;;5068851;28;20040;-69
2021/09/02 02:25:01;;;;;;;8.43;4.05;;;;;;;;;;5068875;28;20035;-69
2021/09/02 02:27:27;;;;;;;7.72;4.35;;;;;;;;;;5070004;28;20044;-69
2021/09/02 02:29:53;;;;;;;8.00;4.20;;;;;;;;;;5075731;28;20028;-72
2021/09/02 02:32:19;;;;;;;8.07;4.18;;;;;;;;;;5068906;28;20475;-68
2021/09/02 02:34:45;;;;;;;8.70;4.35;;;;;;;;;;5068890;28;20021;-69
2021/09/02 02:37:11;;;;;;;7.18;4.35;;;;;;;;;;5069075;28;20062;-68
2021/09/02 02:39:38;;;;;;;9.05;4.95;;;;;;;;;;5069190;28;20549;-68
2021/09/02 02:42:05;;;;;;;8.02;4.28;;;;;;;;;;5065954;28;20037;-71
2021/09/02 02:44:31;;;;;;;7.65;4.50;;;;;;;;;;5068764;28;20090;-69
2021/09/02 02:46:57;;;;;;;7.68;4.30;;;;;;;;;;5068848;28;20505;-72
2021/09/02 02:49:23;;;;;;;7.13;4.53;;;;;;;;;;5068850;28;20021;-68
2021/09/02 02:51:52;;;;;;;6.93;4.03;;;;;;;;;;5069357;28;20024;-71
2021/09/02 02:54:18;;;;;;;7.85;4.47;;;;;;;;;;5068661;28;20024;-71
2021/09/02 02:56:44;;;;;;;9.00;4.32;;;;;;;;;;5068725;28;20045;-67
2021/09/02 02:59:10;;;;;;;7.82;4.30;;;;;;;;;;5067251;28;20044;-72
2021/09/02 03:01:36;;;;;;;8.25;4.20;;;;;;;;;;5068814;28;20032;-69
2021/09/02 03:04:02;;;;;;;7.05;3.85;;;;;;;;;;5082326;28;20033;-68
2021/09/02 03:06:29;;;;;;;8.60;4.75;;;;;;;;;;5068549;28;20086;-69
2021/09/02 03:08:55;;;;;;;7.60;3.97;;;;;;;;;;5068659;28;20081;-69
2021/09/02 03:11:21;;;;;;;6.45;4.07;;;;;;;;;;5068449;28;20021;-68
2021/09/02 03:13:47;;;;;;;7.82;4.38;;;;;;;;;;5068813;28;20039;-69
2021/09/02 03:16:13;;;;;;;7.30;4.20;;;;;;;;;;5066453;28;20021;-74
2021/09/02 03:18:39;;;;;;;7.03;3.85;;;;;;;;;;5068512;28;20082;-69
2021/09/02 03:21:05;;;;;;;7.40;4.20;;;;;;;;;;5068506;28;20094;-69
2021/09/02 03:23:31;;;;;;;7.70;3.90;;;;;;;;;;5068228;28;20146;-71
2021/09/02 03:25:57;;;;;;;8.13;4.13;;;;;;;;;;5067377;28;20631;-69
2021/09/02 03:28:24;;;;;;;8.35;4.20;;;;;;;;;;5068416;28;20112;-70
2021/09/02 03:30:50;;;;;;;7.40;3.95;;;;;;;;;;5068344;28;20373;-70
2021/09/02 03:33:16;;;;;;;7.53;4.15;;;;;;;;;;5066665;28;20033;-68
2021/09/02 03:35:42;;;;;;;8.10;4.47;;;;;;;;;;5067984;28;20466;-68
2021/09/02 03:38:08;;;;;;;8.15;4.00;;;;;;;;;;5068398;28;20482;-69
2021/09/02 03:40:34;;;;;;;7.45;4.32;;;;;;;;;;5068528;28;20429;-68
2021/09/02 03:43:00;;;;;;;7.10;3.95;;;;;;;;;;5068297;28;20039;-68
2021/09/02 03:45:26;;;;;;;7.57;4.18;;;;;;;;;;5067969;28;20067;-68
2021/09/02 03:47:52;;;;;;;8.38;3.88;;;;;;;;;;5068287;28;20024;-71
2021/09/02 03:50:19;;;;;;;7.40;3.75;;;;;;;;;;5063303;28;20049;-68
2021/09/02 03:52:45;;;;;;;7.10;3.72;;;;;;;;;;5085034;28;20391;-71
2021/09/02 03:55:12;;;;;;;6.78;3.65;;;;;;;;;;5072020;28;20087;-68
2021/09/02 03:57:38;;;;;;;8.23;4.38;;;;;;;;;;5071999;28;20487;-68
2021/09/02 04:00:05;;;;;;;6.70;3.72;;;;;;;;;;5072095;28;20039;-68
2021/09/02 04:02:31;;;;;;;8.50;4.45;;;;;;;;;;5068346;28;20126;-68
2021/09/02 04:04:58;;;;;;;8.27;4.00;;;;;;;;;;5083156;28;20077;-71
2021/09/02 04:07:24;;;;;;;6.88;3.92;;;;;;;;;;5071267;28;20028;-68
2021/09/02 04:09:50;;;;;;;7.40;3.97;;;;;;;;;;5071245;28;20487;-67
2021/09/02 04:12:16;;;;;;;7.00;4.05;;;;;;;;;;5071432;28;20027;-68
2021/09/02 04:14:42;;;;;;;6.43;3.75;;;;;;;;;;5068610;28;20024;-68
2021/09/02 04:17:08;;;;;;;7.20;4.22;;;;;;;;;;5071828;28;20020;-68
2021/09/02 04:19:34;;;;;;;7.22;3.60;;;;;;;;;;5086615;28;20024;-67
2021/09/02 04:22:00;;;;;;;7.13;3.75;;;;;;;;;;5069232;28;20472;-67
2021/09/02 04:24:26;;;;;;;17.63;4.68;;;;;;;;;;5070081;28;20467;-68
2021/09/02 04:26:55;;;;;;;8.80;3.95;;;;;;;;;;5072009;28;20028;-68
2021/09/02 04:29:21;;;;;;;10.07;4.00;;;;;;;;;;5071156;28;20017;-69
2021/09/02 04:31:47;;;;;;;8.15;4.13;;;;;;;;;;5071498;28;20025;-67
2021/09/02 04:34:14;;;;;;;8.20;3.97;;;;;;;;;;5070925;28;20534;-67
2021/09/02 04:36:40;;;;;;;9.00;4.07;;;;;;;;;;5071429;28;20017;-69
2021/09/02 04:39:06;;;;;;;8.02;4.00;;;;;;;;;;5072213;28;20031;-69
2021/09/02 04:41:32;;;;;;;9.20;4.35;;;;;;;;;;5070827;28;20032;-67
2021/09/02 04:43:58;;;;;;;9.07;3.80;;;;;;;;;;5070798;28;20056;-68
2021/09/02 04:46:24;;;;;;;7.22;3.80;;;;;;;;;;5071002;28;20024;-68
2021/09/02 04:48:51;;;;;;;8.25;4.00;;;;;;;;;;5069564;28;20024;-69
2021/09/02 04:51:17;;;;;;;10.23;3.95;;;;;;;;;;5067741;28;20033;-68
2021/09/02 04:53:46;;;;;;;6.75;3.90;;;;;;;;;;5077320;28;20078;-68
2021/09/02 04:56:12;;;;;;;8.52;4.53;;;;;;;;;;5070323;28;20040;-68
2021/09/02 04:58:39;;;;;;;6.55;3.90;;;;;;;;;;5069648;28;20056;-67
2021/09/02 05:01:07;;;;;;;10.07;3.90;;;;;;;;;;5069964;28;20049;-68
2021/09/02 05:03:33;;;;;;;7.85;4.20;;;;;;;;;;5067152;28;20037;-68
2021/09/02 05:05:59;;;;;;;6.65;3.35;;;;;;;;;;5074334;28;20051;-69
2021/09/02 05:08:25;;;;;;;8.20;3.95;;;;;;;;;;5070668;28;20600;-67
2021/09/02 05:10:52;;;;;;;7.80;4.15;;;;;;;;;;5070030;28;20025;-68
2021/09/02 05:13:18;;;;;;;7.32;4.00;;;;;;;;;;5070865;28;20048;-71
2021/09/02 05:15:44;;;;;;;7.43;4.00;;;;;;;;;;5071491;28;20031;-70
2021/09/02 05:18:10;;;;;;;8.13;3.90;;;;;;;;;;5070839;28;20104;-68
2021/09/02 05:20:36;;;;;;;7.53;3.67;;;;;;;;;;5070292;28;20017;-68
2021/09/02 05:23:02;;;;;;;6.47;3.53;;;;;;;;;;5069729;28;20028;-67
2021/09/02 05:25:28;;;;;;;7.70;4.30;;;;;;;;;;5070989;28;20020;-67
2021/09/02 05:27:54;;;;;;;7.13;3.38;;;;;;;;;;5070875;28;20032;-68
2021/09/02 05:30:21;;;;;;;7.75;4.13;;;;;;;;;;5069282;28;20029;-68
2021/09/02 05:32:48;;;;;;;14.18;4.88;;;;;;;;;;5069978;28;20032;-68
2021/09/02 05:35:14;;;;;;;10.25;3.95;;;;;;;;;;5068609;28;20027;-68
2021/09/02 05:37:40;;;;;;;12.00;4.40;;;;;;;;;;5066610;28;20037;-68
2021/09/02 05:40:07;;;;;;;8.50;3.83;;;;;;;;;;5070363;28;20016;-68
2021/09/02 05:42:33;;;;;;;8.30;4.03;;;;;;;;;;5069991;28;20044;-68
2021/09/02 05:44:59;;;;;;;6.63;3.47;;;;;;;;;;5068796;28;20047;-69
2021/09/02 05:47:25;;;;;;;7.07;3.60;;;;;;;;;;5069959;28;20021;-69
2021/09/02 05:49:52;;;;;;;8.75;4.07;;;;;;;;;;5067713;28;20024;-68
2021/09/02 05:52:18;;;;;;;7.75;3.90;;;;;;;;;;5069950;28;20029;-72
2021/09/02 05:54:44;;;;;;;6.13;3.60;;;;;;;;;;5068849;28;20031;-72
2021/09/02 05:57:10;;;;;;;8.23;4.15;;;;;;;;;;5069878;28;20119;-68
2021/09/02 05:59:36;;;;;;;9.57;4.10;;;;;;;;;;5069960;28;20052;-70
2021/09/02 06:02:02;;;;;;;11.20;4.45;;;;;;;;;;5070391;28;20082;-73
2021/09/02 06:04:28;;;;;;;7.45;3.85;;;;;;;;;;5069361;28;20364;-72
2021/09/02 06:06:54;;;;;;;7.65;4.20;;;;;;;;;;5068634;28;20021;-69
2021/09/02 06:09:20;;;;;;;8.70;4.20;;;;;;;;;;5069146;28;20028;-70
2021/09/02 06:11:46;;;;;;;7.75;4.13;;;;;;;;;;5068799;28;20050;-68
2021/09/02 06:14:12;;;;;;;6.90;3.83;;;;;;;;;;5068909;28;20081;-69
2021/09/02 06:16:38;;;;;;;9.70;4.68;;;;;;;;;;5068599;28;20052;-69
2021/09/02 06:19:04;;;;;;;8.57;4.03;;;;;;;;;;5068432;28;20023;-69
2021/09/02 06:21:30;;;;;;;6.65;3.70;;;;;;;;;;5068124;28;20575;-68
2021/09/02 06:23:56;;;;;;;7.07;3.65;;;;;;;;;;5067566;28;20555;-68
2021/09/02 06:26:23;;;;;;;6.72;3.65;;;;;;;;;;5069075;28;20070;-69
2021/09/02 06:28:49;;;;;;;6.80;3.63;;;;;;;;;;5067373;28;20044;-70
2021/09/02 06:31:15;;;;;;;6.93;3.92;;;;;;;;;;5067048;28;20025;-72
2021/09/02 06:33:41;;;;;;;6.60;3.58;;;;;;;;;;5067122;28;20020;-67
2021/09/02 06:36:07;;;;;;;8.05;4.40;;;;;;;;;;5069326;28;20487;-68
2021/09/02 06:38:33;;;;;;;9.20;4.15;;;;;;;;;;5068478;28;20388;-68
2021/09/02 06:40:59;;;;;;;6.50;3.58;;;;;;;;;;5068393;28;20020;-67
2021/09/02 06:43:25;;;;;;;7.63;4.13;;;;;;;;;;5067732;28;20028;-68
2021/09/02 06:45:51;;;;;;;9.10;4.22;;;;;;;;;;5067979;28;20078;-71
2021/09/02 06:48:17;;;;;;;7.78;4.00;;;;;;;;;;5068707;28;20043;-68
2021/09/02 06:50:43;;;;;;;7.40;3.67;;;;;;;;;;5067410;28;20119;-68
2021/09/02 06:53:09;;;;;;;10.25;4.07;;;;;;;;;;5069524;28;20016;-68
2021/09/02 06:55:35;;;;;;;6.60;3.97;;;;;;;;;;5069025;28;20035;-69
2021/09/02 06:58:01;;;;;;;8.95;3.88;;;;;;;;;;5066953;28;20131;-68
2021/09/02 07:00:27;;;;;;;7.43;3.75;;;;;;;;;;5069692;28;20017;-69
2021/09/02 07:02:54;;;;;;;6.90;3.90;;;;;;;;;;5076041;28;20159;-68
2021/09/02 07:05:20;;;;;;;11.18;3.72;;;;;;;;;;5067903;28;20048;-70
2021/09/02 07:07:46;;;;;;;8.50;4.00;;;;;;;;;;5068810;28;20032;-68
2021/09/02 07:10:12;;;;;;;8.68;3.95;;;;;;;;;;5069267;28;20017;-72
2021/09/02 07:12:38;;;;;;;11.02;3.65;;;;;;;;;;5068864;28;20044;-71
2021/09/02 07:15:05;;;;;;;7.57;3.28;;;;;;;;;;5068712;28;20031;-70
2021/09/02 07:17:31;;;;;;;6.15;3.17;;;;;;;;;;5065845;28;20056;-68
2021/09/02 07:19:59;;;;;;;15.45;3.80;;;;;;;;;;5068560;28;20025;-68
2021/09/02 07:22:25;;;;;;;9.55;3.45;;;;;;;;;;5068263;28;20043;-68
2021/09/02 07:24:51;;;;;;;9.20;3.17;;;;;;;;;;5068704;28;20037;-68
2021/09/02 07:27:17;;;;;;;5.97;3.03;;;;;;;;;;5067145;28;20085;-71
2021/09/02 07:29:43;;;;;;;7.10;2.80;;;;;;;;;;5070383;28;20059;-70
2021/09/02 07:32:09;;;;;;;7.97;2.97;;;;;;;;;;5072835;28;20024;-68
2021/09/02 07:34:35;;;;;;;6.90;2.47;;;;;;;;;;5073255;28;20032;-69
2021/09/02 07:37:02;;;;;;;7.03;2.65;;;;;;;;;;5076560;28;20031;-67
2021/09/02 07:39:28;;;;;;;8.30;3.42;;;;;;;;;;5070173;28;20020;-68
2021/09/02 07:41:54;;;;;;;8.38;3.85;;;;;;;;;;5071379;28;20040;-69
2021/09/02 07:44:20;;;;;;;7.80;3.17;;;;;;;;;;5069147;28;20016;-72
2021/09/02 07:46:47;;;;;;;5.80;2.78;;;;;;;;;;5071007;28;20177;-68
2021/09/02 07:49:13;;;;;;;6.82;2.97;;;;;;;;;;5069763;28;20020;-67
2021/09/02 07:51:41;;;;;;;5.97;2.55;;;;;;;;;;5072437;28;20017;-68
2021/09/02 07:54:07;;;;;;;4.78;2.78;;;;;;;;;;5071952;28;20024;-68
2021/09/02 07:56:33;;;;;;;5.20;2.97;;;;;;;;;;5070467;28;20060;-69
2021/09/02 07:58:59;;;;;;;4.97;2.75;;;;;;;;;;5071342;28;20024;-69
2021/09/02 08:01:25;;;;;;;6.00;3.10;;;;;;;;;;5072400;28;20047;-69
2021/09/02 08:03:51;;;;;;;6.28;2.63;;;;;;;;;;5077997;28;20120;-68
2021/09/02 08:06:17;;;;;;;6.15;2.80;;;;;;;;;;5086616;28;20016;-68
2021/09/02 08:08:43;;;;;;;5.45;2.75;;;;;;;;;;5071796;28;20036;-67
2021/09/02 08:11:09;;;;;;;8.32;2.90;;;;;;;;;;5068565;28;20161;-68
2021/09/02 08:13:35;;;;;;;8.40;2.97;;;;;;;;;;5071745;28;20031;-67
2021/09/02 08:16:01;;;;;;;12.82;3.80;;;;;;;;;;5068187;28;20043;-68
2021/09/02 08:18:28;;;;;;;8.75;3.30;;;;;;;;;;5072354;28;20508;-70
2021/09/02 08:20:54;;;;;;;9.50;3.10;;;;;;;;;;5070141;28;22811;-73
2021/09/02 08:23:20;;;;;;;7.32;3.30;;;;;;;;;;5069530;28;20491;-70
2021/09/02 08:25:47;;;;;;;10.18;3.35;;;;;;;;;;5071244;28;20040;-70
2021/09/02 08:28:15;;;;;;;7.53;2.90;;;;;;;;;;5068840;28;20029;-71
2021/09/02 08:30:41;;;;;;;12.10;3.05;;;;;;;;;;5071018;28;20009;-74
2021/09/02 08:33:07;;;;;;;8.07;3.08;;;;;;;;;;5070257;28;20025;-72
2021/09/02 08:35:34;;;;;;;9.18;3.00;;;;;;;;;;5068080;28;20051;-72
2021/09/02 08:38:01;;;;;;;7.57;2.80;;;;;;;;;;5071008;28;20031;-72
2021/09/02 08:40:29;;;;;;;9.00;3.10;;;;;;;;;;5070461;28;20181;-70
2021/09/02 08:42:55;;;;;;;5.03;2.80;;;;;;;;;;5070171;28;20033;-70
2021/09/02 08:45:22;;;;;;;6.07;3.03;;;;;;;;;;5071197;28;20048;-71
2021/09/02 08:47:49;;;;;;;7.45;3.38;;;;;;;;;;5074937;28;20028;-69
2021/09/02 08:50:16;;;;;;;7.85;3.15;;;;;;;;;;5063382;28;20380;-69
2021/09/02 08:52:43;;;;;;;6.03;3.30;;;;;;;;;;5067064;28;20032;-69
2021/09/02 08:55:09;;;;;;;6.75;3.45;;;;;;;;;;5065904;28;20028;-69
2021/09/02 08:57:36;;;;;;;6.65;3.30;;;;;;;;;;5063930;28;20040;-71
2021/09/02 09:00:02;;;;;;;8.25;3.40;;;;;;;;;;5069989;28;20023;-70
2021/09/02 09:02:30;;;;;;;6.68;3.28;;;;;;;;;;5073489;28;20111;-70
2021/09/02 09:05:15;;;;;;;9.20;3.22;;;;;;;;;;5073433;28;20020;-69
2021/09/02 09:07:46;;;;;;;6.30;3.08;;;;;;;;;;5073580;28;20036;-69
2021/09/02 09:10:14;;;;;;;7.32;3.78;;;;;;;;;;5071820;28;20089;-69
2021/09/02 09:12:50;;;;;;;9.10;3.33;;;;;;;;;;5067610;28;20024;-69
2021/09/02 09:15:18;;;;;;;8.23;3.10;;;;;;;;;;5053419;28;20245;-69
2021/09/02 09:17:45;;;;;;;10.25;2.90;;;;;;;;;;5072677;28;20515;-70
2021/09/02 09:20:11;;;;;;;6.53;3.22;;;;;;;;;;5073247;28;20092;-69
2021/09/02 09:22:38;;;;;;;7.75;3.42;;;;;;;;;;5071654;28;20048;-69
2021/09/02 09:25:09;;;;;;;8.50;3.45;;;;;;;;;;5073161;28;20461;-73
2021/09/02 09:27:39;;;;;;;6.95;3.38;;;;;;;;;;5073092;28;20412;-70
2021/09/02 09:30:06;;;;;;;8.23;3.17;;;;;;;;;;5063585;28;20020;-68
2021/09/02 09:32:39;;;;;;;6.20;3.00;;;;;;;;;;5053347;28;20580;-68
2021/09/02 09:35:06;;;;;;;6.07;3.22;;;;;;;;;;5052915;28;20033;-68
2021/09/02 09:37:32;;;;;;;7.78;2.80;;;;;;;;;;5068319;28;20044;-75
2021/09/02 09:40:10;;;;;;;6.40;2.95;;;;;;;;;;5053001;28;20080;-69
2021/09/02 09:42:36;;;;;;;6.00;3.05;;;;;;;;;;5053152;28;20029;-68
2021/09/02 09:45:03;;;;;;;6.90;3.17;;;;;;;;;;5053018;28;20021;-69
2021/09/02 09:47:34;;;;;;;5.35;2.90;;;;;;;;;;5053412;28;20104;-71
2021/09/02 09:50:01;;;;;;;5.55;2.92;;;;;;;;;;5071167;28;20112;-69
2021/09/02 09:52:28;;;;;;;5.70;3.00;;;;;;;;;;5072411;28;20012;-69
2021/09/02 09:55:00;;;;;;;6.30;3.25;;;;;;;;;;5072553;28;20147;-69
2021/09/02 09:57:29;;;;;;;5.30;2.85;;;;;;;;;;5072540;28;20476;-70
2021/09/02 09:59:56;;;;;;;8.68;3.30;;;;;;;;;;5069771;28;20075;-68
2021/09/02 10:02:22;;;;;;;6.35;2.78;;;;;;;;;;5072199;28;20043;-71
2021/09/02 10:04:48;;;;;;;5.75;2.80;;;;;;;;;;5057030;28;20083;-68
2021/09/02 10:07:16;;;;;;;6.40;2.58;;;;;;;;;;5068000;28;20120;-68
2021/09/02 10:09:43;;;;;;;5.65;3.10;;;;;;;;;;5052359;28;20017;-69
2021/09/02 10:12:11;;;;;;;6.88;2.90;;;;;;;;;;5052401;28;20020;-69
2021/09/02 10:14:37;;;;;;;4.22;2.50;;;;;;;;;;5052578;28;20024;-69
2021/09/02 10:17:03;;;;;;;5.20;2.83;;;;;;;;;;5052460;28;20491;-70
2021/09/02 10:19:31;;;;;;;5.45;2.95;;;;;;;;;;5067583;28;20075;-69
2021/09/02 10:21:58;;;;;;;6.00;2.70;;;;;;;;;;5067619;28;20060;-69
2021/09/02 10:24:36;;;;;;;5.82;2.50;;;;;;;;;;5071559;28;20115;-69
2021/09/02 10:27:03;;;;;;;9.65;3.15;;;;;;;;;;5070278;28;20044;-69
2021/09/02 10:29:36;;;;;;;6.03;2.92;;;;;;;;;;5071503;28;20009;-69
2021/09/02 10:32:26;;;;;;;5.50;2.83;;;;;;;;;;5070318;28;20531;-69
2021/09/02 10:34:55;;;;;;;5.72;3.17;;;;;;;;;;5065596;28;20115;-70
2021/09/02 10:37:33;;;;;;;4.82;2.38;;;;;;;;;;5067996;28;20394;-70
2021/09/02 10:40:00;;;;;;;5.07;2.30;;;;;;;;;;5068915;28;20168;-70
2021/09/02 10:42:43;;;;;;;7.10;2.50;;;;;;;;;;5071513;28;20029;-69
2021/09/02 10:45:09;;;;;;;;;;;;;;;;;;5072525;28;20024;-69
2021/09/02 10:47:44;;;;;;;9.10;2.78;;;;;;;;;;5071767;28;19905;-69
2021/09/02 10:50:17;;;;;;;9.70;3.70;;;;;;;;;;5071508;28;20119;-70
2021/09/02 10:52:44;;;;;;;10.90;3.70;;;;;;;;;;5070425;28;20066;-69
2021/09/02 10:55:32;;;;;;;7.90;2.90;;;;;;;;;;5071145;28;20081;-69
2021/09/02 10:58:01;;;;;;;8.50;2.92;;;;;;;;;;5070400;28;20055;-69
2021/09/02 11:00:43;;;;;;;7.30;3.30;;;;;;;;;;5071484;28;20100;-70
2021/09/02 11:03:16;;;;;;;6.85;2.58;;;;;;;;;;5071251;28;20514;-69
2021/09/02 11:05:43;;;;;;;9.38;3.00;;;;;;;;;;5070394;28;20021;-71
2021/09/02 11:08:09;;;;;;;11.68;3.05;;;;;;;;;;5071892;28;20024;-70
2021/09/02 11:10:35;;;;;;;8.40;3.03;;;;;;;;;;5071614;28;20021;-71
2021/09/02 11:13:06;;;;;;;7.28;2.90;;;;;;;;;;5070702;28;20025;-72
2021/09/02 11:15:35;;;;;;;7.35;2.90;;;;;;;;;;5071069;28;20039;-73
2021/09/02 11:18:05;;;;;;;7.38;3.05;;;;;;;;;;5070172;28;20116;-70
2021/09/02 11:20:33;;;;;;;8.20;2.90;;;;;;;;;;5071347;28;20060;-68
2021/09/02 11:23:10;;;;;;;7.00;2.90;;;;;;;;;;5059362;28;20033;-70
2021/09/02 11:25:46;;;;;;;8.98;3.08;;;;;;;;;;5071197;28;20020;-68
2021/09/02 11:28:13;;;;;;;10.30;3.60;;;;;;;;;;5069209;28;20090;-70
2021/09/02 11:30:39;;;;;;;7.85;3.28;;;;;;;;;;5068547;28;20064;-70
2021/09/02 11:33:06;;;;;;;11.77;3.30;;;;;;;;;;5071463;28;20067;-69
2021/09/02 11:35:32;;;;;;;13.55;3.45;;;;;;;;;;5071019;28;20012;-72
2021/09/02 11:37:58;;;;;;;8.50;2.70;;;;;;;;;;5069902;28;20119;-69
2021/09/02 11:40:26;;;;;;;9.80;2.92;;;;;;;;;;5071367;28;20013;-69
2021/09/02 11:42:53;;;;;;;8.77;2.75;;;;;;;;;;5071405;28;20040;-70
2021/09/02 11:45:19;;;;;;;7.82;2.97;;;;;;;;;;5068271;28;20046;-70
2021/09/02 11:47:48;;;;;;;8.55;2.25;;;;;;;;;;5051194;28;20053;-70
2021/09/02 11:50:14;;;;;;;6.50;2.47;;;;;;;;;;5061429;28;20069;-69
2021/09/02 11:52:44;;;;;;;12.63;3.08;;;;;;;;;;5057137;28;20074;-69
2021/09/02 11:55:16;;;;;;;6.00;2.83;;;;;;;;;;5086763;28;20372;-69
2021/09/02 11:57:42;;;;;;;11.07;2.78;;;;;;;;;;5071089;28;20048;-69
2021/09/02 12:00:14;;;;;;;7.15;3.25;;;;;;;;;;5071229;28;20023;-70
2021/09/02 12:02:46;;;;;;;7.22;2.65;;;;;;;;;;5083452;28;20496;-69
2021/09/02 12:05:12;;;;;;;10.23;2.90;;;;;;;;;;5069967;28;20387;-69
2021/09/02 12:07:38;;;;;;;10.60;3.53;;;;;;;;;;5071158;28;20028;-68
2021/09/02 12:10:04;;;;;;;8.10;2.88;;;;;;;;;;5071007;28;20088;-70
2021/09/02 12:12:31;;;;;;;6.55;2.78;;;;;;;;;;5070859;28;20067;-71
2021/09/02 12:14:57;;;;;;;7.38;2.60;;;;;;;;;;5072895;28;20439;-70
2021/09/02 12:17:31;;;;;;;5.32;2.20;;;;;;;;;;5073967;28;20021;-71
2021/09/02 12:19:59;;;;;;;15.50;3.13;;;;;;;;;;5072793;28;20055;-70
2021/09/02 12:22:36;;;;;;;7.28;2.25;;;;;;;;;;5072426;28;20501;-70
2021/09/02 12:25:17;;;;;;;6.78;2.67;;;;;;;;;;5073472;28;20024;-71
2021/09/02 12:27:54;;;;;;;6.18;2.85;;;;;;;;;;5073401;28;20107;-71
2021/09/02 12:30:43;;;;;;;6.43;2.15;;;;;;;;;;5073859;28;20062;-71
2021/09/02 12:33:14;;;;;;;6.35;2.25;;;;;;;;;;5074010;28;20124;-71
2021/09/02 12:35:41;;;;;;;10.38;2.72;;;;;;;;;;5071912;28;20021;-71
2021/09/02 12:38:08;;;;;;;6.93;2.30;;;;;;;;;;5072740;28;20024;-72
2021/09/02 12:40:34;;;;;;;9.43;2.47;;;;;;;;;;5073054;28;20020;-71
2021/09/02 12:43:19;;;;;;;6.70;2.60;;;;;;;;;;5074210;28;20476;-70
2021/09/02 12:45:57;;;;;;;5.97;2.35;;;;;;;;;;5074165;28;20025;-71
2021/09/02 12:48:23;;;;;;;4.82;2.00;;;;;;;;;;5070814;28;20031;-70
2021/09/02 12:50:50;;;;;;;6.53;2.35;;;;;;;;;;5067597;28;20071;-70
2021/09/02 12:53:16;;;;;;;4.82;2.15;;;;;;;;;;5069628;28;20043;-71
2021/09/02 12:55:42;;;;;;;6.93;2.58;;;;;;;;;;5070805;28;20584;-73
2021/09/02 12:58:09;;;;;;;5.30;2.33;;;;;;;;;;5073717;28;20577;-70
2021/09/02 13:00:38;;;;;;;6.60;2.35;;;;;;;;;;5073296;28;20495;-71
2021/09/02 13:03:07;;;;;;;7.13;2.22;;;;;;;;;;5071058;28;20454;-74
2021/09/02 13:05:34;;;;;;;9.70;2.78;;;;;;;;;;5070519;28;20017;-72
2021/09/02 13:08:01;;;;;;;7.88;2.58;;;;;;;;;;5072642;28;20502;-71
2021/09/02 13:10:29;;;;;;;8.50;2.80;;;;;;;;;;5071710;28;20052;-71
2021/09/02 13:12:56;;;;;;;11.00;2.38;;;;;;;;;;5071101;28;20585;-71
2021/09/02 13:15:22;;;;;;;7.88;2.40;;;;;;;;;;5072098;28;20016;-70
2021/09/02 13:17:49;;;;;;;5.93;2.20;;;;;;;;;;5070395;28;20061;-71
2021/09/02 13:20:15;;;;;;;5.00;2.40;;;;;;;;;;5072170;28;20019;-70
2021/09/02 13:22:42;;;;;;;4.25;2.05;;;;;;;;;;5073048;28;20041;-70
2021/09/02 13:25:09;;;;;;;5.38;2.22;;;;;;;;;;5071796;28;20020;-70
2021/09/02 13:27:36;;;;;;;6.53;2.47;;;;;;;;;;5071337;28;20601;-70
2021/09/02 13:30:02;;;;;;;9.30;2.75;;;;;;;;;;5070785;28;20464;-71
2021/09/02 13:32:28;;;;;;;7.13;2.25;;;;;;;;;;5072520;28;20013;-70
2021/09/02 13:34:54;;;;;;;7.63;2.10;;;;;;;;;;5071042;28;20039;-72
2021/09/02 13:37:20;;;;;;;5.88;2.13;;;;;;;;;;5073218;28;20020;-69
2021/09/02 13:39:46;;;;;;;6.15;2.10;;;;;;;;;;5066615;28;20052;-69
2021/09/02 13:42:13;;;;;;;6.93;2.38;;;;;;;;;;5070020;28;20043;-68
2021/09/02 13:44:39;;;;;;;4.60;1.98;;;;;;;;;;5068166;28;20562;-70
2021/09/02 13:47:05;;;;;;;4.80;2.30;;;;;;;;;;5072902;28;20029;-70
2021/09/02 13:49:31;;;;;;;5.45;2.40;;;;;;;;;;5071331;28;20025;-70
2021/09/02 13:51:57;;;;;;;5.95;2.30;;;;;;;;;;5072422;28;20020;-71
2021/09/02 13:54:23;;;;;;;7.13;2.30;;;;;;;;;;5072636;28;20444;-68
2021/09/02 13:56:50;;;;;;;6.32;2.00;;;;;;;;;;5072369;28;20079;-69
2021/09/02 13:59:16;;;;;;;4.22;2.03;;;;;;;;;;5072789;28;20017;-69
2021/09/02 14:01:42;;;;;;;4.15;1.70;;;;;;;;;;5071135;28;20197;-70
2021/09/02 14:04:08;;;;;;;7.00;2.35;;;;;;;;;;5072357;28;20035;-68
2021/09/02 14:06:35;;;;;;;4.85;2.05;;;;;;;;;;5071062;28;20021;-71
2021/09/02 14:09:01;;;;;;;4.40;1.92;;;;;;;;;;5072207;28;20048;-74
2021/09/02 14:11:27;;;;;;;4.55;2.10;;;;;;;;;;5072328;28;20032;-76
2021/09/02 14:13:53;;;;;;;4.00;1.98;;;;;;;;;;5072250;28;20059;-78
2021/09/02 14:16:19;;;;;;;5.38;2.17;;;;;;;;;;5070859;28;20025;-71
2021/09/02 14:18:45;;;;;;;4.00;2.03;;;;;;;;;;5069941;28;20035;-70
2021/09/02 14:21:11;;;;;;;5.95;2.00;;;;;;;;;;5070197;28;20031;-70
2021/09/02 14:23:37;;;;;;;4.70;1.95;;;;;;;;;;5071550;28;20032;-70
2021/09/02 14:26:03;;;;;;;18.85;2.67;;;;;;;;;;5071669;28;20101;-68
2021/09/02 14:28:29;;;;;;;7.72;2.80;;;;;;;;;;5070472;28;20039;-71
2021/09/02 14:30:57;;;;;;;5.43;2.22;;;;;;;;;;5072012;28;20025;-70
2021/09/02 14:33:23;;;;;;;4.78;2.22;;;;;;;;;;5071907;28;20020;-71
2021/09/02 14:35:49;;;;;;;7.30;2.15;;;;;;;;;;5066437;28;20028;-69
2021/09/02 14:38:15;;;;;;;6.25;2.30;;;;;;;;;;5071015;28;20488;-80
2021/09/02 14:40:43;;;;;;;5.43;2.03;;;;;;;;;;5089770;28;20020;-69
2021/09/02 14:43:09;;;;;;;6.00;2.42;;;;;;;;;;5090767;28;20034;-70